RYR2EE LEPA-EGBB
Flight info
| Callsign | RYR2EE |
|---|---|
| Flight time | 2h 12m |
| Altitude | 36000 |
| Route | GALAT DCT RODRA N861 OLOXO DCT OKABI DCT TOU DCT TUPAR UN861 DIKRO UM184 KOTEM/N0395F240 M184 HEMEL |
| Aircraft | A320/M-SDE3FGHIRWY/LB1 |
Departure
| Time | 2026-05-01 10:40 |
|---|---|
| Airport | Palma de Mallorca Airport (LEPA) |
Arrival
| Time | 2026-05-01 12:52 |
|---|---|
| Airport | Birmingham Airport (EGBB) |
| Time | Latitude | Longitude | Altitude | Speed | Heading |
|---|---|---|---|---|---|
| 2026-05-01 10:04 | 39.54966 | 2.72631 | 30 ft | 0 kts | 148° |
| 2026-05-01 10:27 | 39.54968 | 2.72630 | 30 ft | 2 kts | 148° |
| 2026-05-01 10:28 | 39.54990 | 2.72612 | 30 ft | 4 kts | 144° |
| 2026-05-01 10:28 | 39.55025 | 2.72563 | 30 ft | 4 kts | 91° |
| 2026-05-01 10:28 | 39.55024 | 2.72550 | 30 ft | 0 kts | 61° |
| 2026-05-01 10:32 | 39.55028 | 2.72559 | 30 ft | 2 kts | 61° |
| 2026-05-01 10:33 | 39.55064 | 2.72646 | 30 ft | 8 kts | 59° |
| 2026-05-01 10:33 | 39.55146 | 2.72818 | 30 ft | 14 kts | 57° |
| 2026-05-01 10:34 | 39.55200 | 2.72932 | 30 ft | 16 kts | 59° |
| 2026-05-01 10:34 | 39.55262 | 2.73063 | 30 ft | 18 kts | 59° |
| 2026-05-01 10:34 | 39.55333 | 2.73209 | 30 ft | 20 kts | 58° |
| 2026-05-01 10:35 | 39.55466 | 2.73489 | 30 ft | 7 kts | 57° |
| 2026-05-01 10:35 | 39.55498 | 2.73555 | 30 ft | 10 kts | 58° |
| 2026-05-01 10:35 | 39.55470 | 2.73622 | 30 ft | 11 kts | 147° |
| 2026-05-01 10:35 | 39.55400 | 2.73676 | 30 ft | 13 kts | 149° |
| 2026-05-01 10:36 | 39.55222 | 2.73817 | 30 ft | 17 kts | 149° |
| 2026-05-01 10:36 | 39.55113 | 2.73903 | 30 ft | 19 kts | 148° |
| 2026-05-01 10:36 | 39.54992 | 2.73999 | 30 ft | 21 kts | 148° |
| 2026-05-01 10:37 | 39.54861 | 2.74102 | 30 ft | 14 kts | 149° |
| 2026-05-01 10:37 | 39.54746 | 2.74033 | 30 ft | 12 kts | 238° |
| 2026-05-01 10:37 | 39.54698 | 2.73933 | 30 ft | 14 kts | 238° |
| 2026-05-01 10:38 | 39.54644 | 2.73818 | 30 ft | 16 kts | 238° |
| 2026-05-01 10:38 | 39.54591 | 2.73707 | 30 ft | 7 kts | 238° |
| 2026-05-01 10:38 | 39.54568 | 2.73680 | 30 ft | 7 kts | 188° |
| 2026-05-01 10:38 | 39.54514 | 2.73698 | 30 ft | 9 kts | 152° |
| 2026-05-01 10:39 | 39.54456 | 2.73746 | 30 ft | 11 kts | 147° |
| 2026-05-01 10:39 | 39.54425 | 2.73797 | 30 ft | 6 kts | 63° |
| 2026-05-01 10:39 | 39.54450 | 2.73855 | 30 ft | 10 kts | 59° |
| 2026-05-01 10:39 | 39.54568 | 2.74104 | 30 ft | 69 kts | 58° |
| 2026-05-01 10:40 | 39.54941 | 2.74892 | 30 ft | 129 kts | 58° |
| 2026-05-01 10:40 | 39.55471 | 2.76012 | 300 ft | 149 kts | 58° |
| 2026-05-01 10:40 | 39.56001 | 2.77156 | 998 ft | 148 kts | 61° |
| 2026-05-01 10:40 | 39.56521 | 2.78301 | 1592 ft | 148 kts | 60° |
| 2026-05-01 10:41 | 39.57056 | 2.79478 | 1933 ft | 160 kts | 60° |
| 2026-05-01 10:41 | 39.57658 | 2.80805 | 2164 ft | 182 kts | 60° |
| 2026-05-01 10:41 | 39.59044 | 2.83866 | 3048 ft | 204 kts | 60° |
| 2026-05-01 10:42 | 39.59767 | 2.85454 | 3687 ft | 206 kts | 60° |
| 2026-05-01 10:42 | 39.60499 | 2.87061 | 4283 ft | 208 kts | 60° |
| 2026-05-01 10:42 | 39.61240 | 2.88686 | 4754 ft | 218 kts | 60° |
| 2026-05-01 10:42 | 39.62224 | 2.90197 | 5299 ft | 225 kts | 36° |
| 2026-05-01 10:43 | 39.63721 | 2.90880 | 5865 ft | 232 kts | 2° |
| 2026-05-01 10:43 | 39.65289 | 2.90408 | 6484 ft | 236 kts | 328° |
| 2026-05-01 10:43 | 39.66424 | 2.88910 | 7113 ft | 236 kts | 295° |
| 2026-05-01 10:43 | 39.67035 | 2.86971 | 7776 ft | 236 kts | 288° |
| 2026-05-01 10:44 | 39.67545 | 2.84924 | 8351 ft | 246 kts | 284° |
| 2026-05-01 10:44 | 39.67980 | 2.82668 | 8659 ft | 269 kts | 280° |
| 2026-05-01 10:44 | 39.68305 | 2.80215 | 9220 ft | 280 kts | 276° |
| 2026-05-01 10:44 | 39.68493 | 2.77687 | 9991 ft | 283 kts | 271° |
| 2026-05-01 10:45 | 39.68713 | 2.75123 | 10611 ft | 293 kts | 279° |
| 2026-05-01 10:45 | 39.69285 | 2.72481 | 10808 ft | 317 kts | 289° |
| 2026-05-01 10:45 | 39.70193 | 2.69763 | 11104 ft | 335 kts | 292° |
| 2026-05-01 10:45 | 39.71149 | 2.66972 | 11680 ft | 341 kts | 291° |
| 2026-05-01 10:46 | 39.72117 | 2.64144 | 12353 ft | 344 kts | 292° |
| 2026-05-01 10:46 | 39.73090 | 2.61291 | 13052 ft | 347 kts | 292° |
| 2026-05-01 10:46 | 39.74070 | 2.58408 | 13743 ft | 350 kts | 292° |
| 2026-05-01 10:46 | 39.75055 | 2.55503 | 14364 ft | 353 kts | 291° |
| 2026-05-01 10:47 | 39.76044 | 2.52574 | 14950 ft | 355 kts | 291° |
| 2026-05-01 10:47 | 39.77040 | 2.49622 | 15538 ft | 358 kts | 291° |
| 2026-05-01 10:47 | 39.78044 | 2.46652 | 16112 ft | 360 kts | 292° |
| 2026-05-01 10:47 | 39.79053 | 2.43663 | 16697 ft | 363 kts | 292° |
| 2026-05-01 10:48 | 39.80069 | 2.40646 | 17281 ft | 365 kts | 291° |
| 2026-05-01 10:48 | 39.81090 | 2.37610 | 17880 ft | 368 kts | 291° |
| 2026-05-01 10:48 | 39.82168 | 2.34583 | 18493 ft | 371 kts | 297° |
| 2026-05-01 10:48 | 39.83618 | 2.31781 | 19017 ft | 376 kts | 307° |
| 2026-05-01 10:49 | 39.85462 | 2.29328 | 19564 ft | 382 kts | 315° |
| 2026-05-01 10:49 | 39.87445 | 2.27020 | 20118 ft | 384 kts | 315° |
| 2026-05-01 10:49 | 39.89444 | 2.24691 | 20669 ft | 387 kts | 315° |
| 2026-05-01 10:49 | 39.91453 | 2.22342 | 21209 ft | 389 kts | 314° |
| 2026-05-01 10:50 | 39.93469 | 2.19976 | 21741 ft | 392 kts | 314° |
| 2026-05-01 10:50 | 39.95499 | 2.17589 | 22249 ft | 394 kts | 314° |
| 2026-05-01 10:50 | 39.97540 | 2.15190 | 22743 ft | 396 kts | 314° |
| 2026-05-01 10:50 | 39.99596 | 2.12778 | 23227 ft | 399 kts | 314° |
| 2026-05-01 10:51 | 40.01666 | 2.10351 | 23708 ft | 401 kts | 314° |
| 2026-05-01 10:51 | 40.03742 | 2.07904 | 24116 ft | 403 kts | 314° |
| 2026-05-01 10:51 | 40.05826 | 2.05445 | 24510 ft | 405 kts | 314° |
| 2026-05-01 10:51 | 40.07923 | 2.02971 | 24904 ft | 407 kts | 314° |
| 2026-05-01 10:52 | 40.10025 | 2.00489 | 25290 ft | 409 kts | 313° |
| 2026-05-01 10:52 | 40.12139 | 1.97994 | 25671 ft | 411 kts | 314° |
| 2026-05-01 10:52 | 40.14458 | 1.95767 | 26041 ft | 418 kts | 324° |
| 2026-05-01 10:52 | 40.17092 | 1.94083 | 26399 ft | 426 kts | 334° |
| 2026-05-01 10:53 | 40.19978 | 1.93023 | 26763 ft | 435 kts | 344° |
| 2026-05-01 10:53 | 40.22964 | 1.92334 | 27102 ft | 438 kts | 345° |
| 2026-05-01 10:53 | 40.25971 | 1.91642 | 27453 ft | 440 kts | 345° |
| 2026-05-01 10:53 | 40.28993 | 1.90940 | 27802 ft | 442 kts | 345° |
| 2026-05-01 10:54 | 40.32024 | 1.90236 | 28152 ft | 444 kts | 345° |
| 2026-05-01 10:54 | 40.35071 | 1.89528 | 28491 ft | 446 kts | 344° |
| 2026-05-01 10:54 | 40.38132 | 1.88814 | 28827 ft | 448 kts | 344° |
| 2026-05-01 10:54 | 40.41203 | 1.88095 | 29158 ft | 450 kts | 344° |
| 2026-05-01 10:55 | 40.44243 | 1.87383 | 29617 ft | 448 kts | 344° |
| 2026-05-01 10:55 | 40.47349 | 1.86659 | 30125 ft | 447 kts | 344° |
| 2026-05-01 10:55 | 40.50368 | 1.85955 | 30560 ft | 446 kts | 344° |
| 2026-05-01 10:55 | 40.53410 | 1.85246 | 30974 ft | 444 kts | 344° |
| 2026-05-01 10:56 | 40.56452 | 1.84538 | 31396 ft | 443 kts | 343° |
| 2026-05-01 10:56 | 40.59475 | 1.83834 | 31827 ft | 441 kts | 343° |
| 2026-05-01 10:56 | 40.62493 | 1.83126 | 32265 ft | 439 kts | 343° |
| 2026-05-01 10:56 | 40.65494 | 1.82418 | 32701 ft | 437 kts | 343° |
| 2026-05-01 10:57 | 40.68486 | 1.81710 | 33133 ft | 436 kts | 343° |
| 2026-05-01 10:57 | 40.71466 | 1.81005 | 33585 ft | 434 kts | 343° |
| 2026-05-01 10:57 | 40.74430 | 1.80306 | 34042 ft | 432 kts | 342° |
| 2026-05-01 10:57 | 40.77386 | 1.79612 | 34447 ft | 430 kts | 342° |
| 2026-05-01 10:58 | 40.80327 | 1.78922 | 34792 ft | 429 kts | 342° |
| 2026-05-01 10:58 | 40.83261 | 1.78230 | 35138 ft | 428 kts | 342° |
| 2026-05-01 10:58 | 40.86186 | 1.77536 | 35459 ft | 427 kts | 342° |
| 2026-05-01 10:58 | 40.89086 | 1.76846 | 35685 ft | 426 kts | 342° |
| 2026-05-01 10:59 | 40.92006 | 1.76152 | 35894 ft | 426 kts | 342° |
| 2026-05-01 10:59 | 40.94917 | 1.75462 | 36098 ft | 425 kts | 342° |
| 2026-05-01 10:59 | 40.97823 | 1.74771 | 36217 ft | 426 kts | 342° |
| 2026-05-01 11:00 | 41.03729 | 1.73349 | 36242 ft | 435 kts | 342° |
| 2026-05-01 11:00 | 41.09749 | 1.72121 | 36242 ft | 440 kts | 346° |
| 2026-05-01 11:01 | 41.15847 | 1.71265 | 36244 ft | 441 kts | 347° |
| 2026-05-01 11:01 | 41.21958 | 1.70452 | 36246 ft | 441 kts | 346° |
| 2026-05-01 11:02 | 41.28057 | 1.69557 | 36252 ft | 441 kts | 346° |
| 2026-05-01 11:02 | 41.34147 | 1.68590 | 36261 ft | 441 kts | 345° |
| 2026-05-01 11:03 | 41.40207 | 1.67625 | 36267 ft | 441 kts | 346° |
| 2026-05-01 11:03 | 41.46305 | 1.66678 | 36246 ft | 441 kts | 346° |
| 2026-05-01 11:04 | 41.52397 | 1.65733 | 36243 ft | 441 kts | 346° |
| 2026-05-01 11:04 | 41.58485 | 1.64769 | 36241 ft | 441 kts | 346° |
| 2026-05-01 11:05 | 41.64574 | 1.63816 | 36248 ft | 441 kts | 346° |
| 2026-05-01 11:05 | 41.70672 | 1.62861 | 36246 ft | 441 kts | 346° |
| 2026-05-01 11:06 | 41.76774 | 1.61899 | 36253 ft | 442 kts | 346° |
| 2026-05-01 11:06 | 41.82890 | 1.60930 | 36253 ft | 442 kts | 346° |
| 2026-05-01 11:07 | 41.92062 | 1.59477 | 36252 ft | 443 kts | 347° |
| 2026-05-01 11:07 | 41.98181 | 1.58502 | 36248 ft | 443 kts | 347° |
| 2026-05-01 11:08 | 42.04306 | 1.57538 | 36248 ft | 443 kts | 347° |
| 2026-05-01 11:09 | 42.13498 | 1.56083 | 36244 ft | 444 kts | 347° |
| 2026-05-01 11:09 | 42.19632 | 1.55098 | 36257 ft | 445 kts | 347° |
| 2026-05-01 11:10 | 42.28853 | 1.53628 | 36256 ft | 445 kts | 347° |
| 2026-05-01 11:10 | 42.35009 | 1.52642 | 36255 ft | 446 kts | 347° |
| 2026-05-01 11:11 | 42.41189 | 1.51642 | 36249 ft | 447 kts | 347° |
| 2026-05-01 11:11 | 42.47357 | 1.50650 | 36252 ft | 448 kts | 347° |
| 2026-05-01 11:12 | 42.53547 | 1.49663 | 36251 ft | 448 kts | 348° |
| 2026-05-01 11:12 | 42.59752 | 1.48669 | 36248 ft | 449 kts | 348° |
| 2026-05-01 11:13 | 42.65944 | 1.47677 | 36238 ft | 448 kts | 348° |
| 2026-05-01 11:13 | 42.72145 | 1.46674 | 36241 ft | 449 kts | 348° |
| 2026-05-01 11:14 | 42.78346 | 1.45665 | 36224 ft | 449 kts | 349° |
| 2026-05-01 11:14 | 42.84553 | 1.44660 | 36224 ft | 449 kts | 348° |
| 2026-05-01 11:15 | 42.90772 | 1.43657 | 36223 ft | 450 kts | 348° |
| 2026-05-01 11:15 | 42.96990 | 1.42649 | 36215 ft | 450 kts | 349° |
| 2026-05-01 11:16 | 43.03212 | 1.41639 | 36215 ft | 451 kts | 349° |
| 2026-05-01 11:16 | 43.09441 | 1.40634 | 36213 ft | 451 kts | 349° |
| 2026-05-01 11:17 | 43.15682 | 1.39613 | 36213 ft | 451 kts | 349° |
| 2026-05-01 11:17 | 43.21915 | 1.38592 | 36216 ft | 452 kts | 349° |
| 2026-05-01 11:18 | 43.28163 | 1.37575 | 36213 ft | 452 kts | 349° |
| 2026-05-01 11:18 | 43.34416 | 1.36548 | 36219 ft | 452 kts | 349° |
| 2026-05-01 11:19 | 43.40669 | 1.35522 | 36219 ft | 453 kts | 349° |
| 2026-05-01 11:19 | 43.46926 | 1.34481 | 36215 ft | 453 kts | 349° |
| 2026-05-01 11:20 | 43.53194 | 1.33440 | 36221 ft | 454 kts | 350° |
| 2026-05-01 11:20 | 43.59406 | 1.32414 | 36222 ft | 454 kts | 350° |
| 2026-05-01 11:21 | 43.65741 | 1.31323 | 36213 ft | 454 kts | 346° |
| 2026-05-01 11:21 | 43.71604 | 1.28606 | 36211 ft | 447 kts | 330° |
| 2026-05-01 11:22 | 43.77148 | 1.24804 | 36213 ft | 448 kts | 330° |
| 2026-05-01 11:22 | 43.82706 | 1.21002 | 36217 ft | 449 kts | 331° |
| 2026-05-01 11:23 | 43.88310 | 1.17175 | 36209 ft | 449 kts | 331° |
| 2026-05-01 11:23 | 43.93921 | 1.13327 | 36215 ft | 450 kts | 331° |
| 2026-05-01 11:24 | 43.99546 | 1.09460 | 36216 ft | 451 kts | 331° |
| 2026-05-01 11:25 | 44.07999 | 1.03630 | 36210 ft | 453 kts | 331° |
| 2026-05-01 11:25 | 44.15514 | 0.98443 | 36211 ft | 453 kts | 331° |
| 2026-05-01 11:26 | 44.24000 | 0.92563 | 36212 ft | 454 kts | 331° |
| 2026-05-01 11:27 | 44.29657 | 0.88621 | 36219 ft | 455 kts | 331° |
| 2026-05-01 11:27 | 44.35323 | 0.84669 | 36220 ft | 455 kts | 331° |
| 2026-05-01 11:28 | 44.40992 | 0.80708 | 36221 ft | 455 kts | 331° |
| 2026-05-01 11:28 | 44.46657 | 0.76736 | 36214 ft | 456 kts | 331° |
| 2026-05-01 11:29 | 44.55160 | 0.70755 | 36220 ft | 456 kts | 332° |
| 2026-05-01 11:30 | 44.63668 | 0.64780 | 36221 ft | 456 kts | 332° |
| 2026-05-01 11:30 | 44.69334 | 0.60780 | 36218 ft | 456 kts | 332° |
| 2026-05-01 11:31 | 44.75007 | 0.56767 | 36222 ft | 456 kts | 332° |
| 2026-05-01 11:31 | 44.80675 | 0.52749 | 36229 ft | 456 kts | 332° |
| 2026-05-01 11:32 | 44.86341 | 0.48727 | 36225 ft | 456 kts | 332° |
| 2026-05-01 11:32 | 44.92021 | 0.44683 | 36202 ft | 459 kts | 332° |
| 2026-05-01 11:33 | 44.97738 | 0.40600 | 36190 ft | 462 kts | 332° |
| 2026-05-01 11:33 | 45.03486 | 0.36480 | 36221 ft | 465 kts | 331° |
| 2026-05-01 11:34 | 45.09260 | 0.32335 | 36236 ft | 466 kts | 331° |
| 2026-05-01 11:34 | 45.15037 | 0.28178 | 36245 ft | 465 kts | 331° |
| 2026-05-01 11:35 | 45.20803 | 0.24020 | 36245 ft | 465 kts | 331° |
| 2026-05-01 11:35 | 45.26568 | 0.19861 | 36249 ft | 464 kts | 331° |
| 2026-05-01 11:36 | 45.32285 | 0.15726 | 36250 ft | 464 kts | 331° |
| 2026-05-01 11:36 | 45.38037 | 0.11552 | 36253 ft | 464 kts | 331° |
| 2026-05-01 11:37 | 45.43825 | 0.07343 | 36252 ft | 464 kts | 331° |
| 2026-05-01 11:37 | 45.49525 | 0.03185 | 36248 ft | 463 kts | 331° |
| 2026-05-01 11:38 | 45.55258 | -0.01004 | 36249 ft | 463 kts | 331° |
| 2026-05-01 11:38 | 45.60986 | -0.05202 | 36248 ft | 463 kts | 331° |
| 2026-05-01 11:39 | 45.66719 | -0.09409 | 36246 ft | 463 kts | 331° |
| 2026-05-01 11:39 | 45.72447 | -0.13615 | 36244 ft | 463 kts | 331° |
| 2026-05-01 11:40 | 45.78169 | -0.17829 | 36245 ft | 463 kts | 330° |
| 2026-05-01 11:40 | 45.83887 | -0.22050 | 36244 ft | 462 kts | 330° |
| 2026-05-01 11:41 | 45.89694 | -0.26004 | 36239 ft | 464 kts | 342° |
| 2026-05-01 11:41 | 45.92881 | -0.26765 | 36240 ft | 467 kts | 357° |
| 2026-05-01 11:41 | 45.96133 | -0.26817 | 36240 ft | 467 kts | 358° |
| 2026-05-01 11:42 | 46.02640 | -0.26835 | 36239 ft | 468 kts | 358° |
| 2026-05-01 11:42 | 46.09146 | -0.26824 | 36238 ft | 467 kts | 358° |
| 2026-05-01 11:43 | 46.15655 | -0.26828 | 36237 ft | 467 kts | 358° |
| 2026-05-01 11:43 | 46.22146 | -0.26846 | 36238 ft | 467 kts | 358° |
| 2026-05-01 11:44 | 46.31883 | -0.26887 | 36238 ft | 466 kts | 358° |
| 2026-05-01 11:44 | 46.38373 | -0.26907 | 36239 ft | 466 kts | 358° |
| 2026-05-01 11:45 | 46.44854 | -0.26931 | 36242 ft | 465 kts | 358° |
| 2026-05-01 11:45 | 46.51324 | -0.27043 | 36240 ft | 465 kts | 357° |
| 2026-05-01 11:46 | 46.57776 | -0.27216 | 36238 ft | 464 kts | 357° |
| 2026-05-01 11:46 | 46.64237 | -0.27381 | 36240 ft | 464 kts | 357° |
| 2026-05-01 11:47 | 46.70688 | -0.27519 | 36239 ft | 463 kts | 357° |
| 2026-05-01 11:47 | 46.77132 | -0.27651 | 36239 ft | 463 kts | 357° |
| 2026-05-01 11:48 | 46.83576 | -0.27794 | 36239 ft | 463 kts | 357° |
| 2026-05-01 11:48 | 46.89976 | -0.27933 | 36240 ft | 463 kts | 357° |
| 2026-05-01 11:49 | 46.96406 | -0.28068 | 36243 ft | 462 kts | 357° |
| 2026-05-01 11:49 | 47.02843 | -0.28205 | 36240 ft | 462 kts | 357° |
| 2026-05-01 11:50 | 47.09314 | -0.28347 | 36242 ft | 462 kts | 357° |
| 2026-05-01 11:50 | 47.15740 | -0.28494 | 36243 ft | 462 kts | 357° |
| 2026-05-01 11:51 | 47.22126 | -0.28647 | 36242 ft | 462 kts | 357° |
| 2026-05-01 11:51 | 47.28537 | -0.28785 | 36243 ft | 461 kts | 357° |
| 2026-05-01 11:52 | 47.34959 | -0.28926 | 36230 ft | 461 kts | 357° |
| 2026-05-01 11:52 | 47.41377 | -0.29068 | 36235 ft | 461 kts | 357° |
| 2026-05-01 11:53 | 47.47792 | -0.29208 | 36248 ft | 461 kts | 357° |
| 2026-05-01 11:53 | 47.54193 | -0.29359 | 36249 ft | 460 kts | 357° |
| 2026-05-01 11:54 | 47.60604 | -0.29505 | 36248 ft | 460 kts | 358° |
| 2026-05-01 11:54 | 47.67003 | -0.29642 | 36247 ft | 460 kts | 358° |
| 2026-05-01 11:55 | 47.73398 | -0.29783 | 36240 ft | 460 kts | 358° |
| 2026-05-01 11:55 | 47.79804 | -0.29940 | 36242 ft | 460 kts | 358° |
| 2026-05-01 11:56 | 47.86185 | -0.30091 | 36241 ft | 460 kts | 358° |
| 2026-05-01 11:56 | 47.92599 | -0.30236 | 36243 ft | 460 kts | 358° |
| 2026-05-01 11:57 | 47.99004 | -0.30369 | 36242 ft | 460 kts | 358° |
| 2026-05-01 11:57 | 48.05409 | -0.30512 | 36240 ft | 460 kts | 358° |
| 2026-05-01 11:58 | 48.11854 | -0.30665 | 36232 ft | 461 kts | 358° |
| 2026-05-01 11:59 | 48.21469 | -0.30954 | 36382 ft | 461 kts | 357° |
| 2026-05-01 11:59 | 48.24677 | -0.31122 | 36483 ft | 462 kts | 357° |
| 2026-05-01 11:59 | 48.27895 | -0.31338 | 36602 ft | 462 kts | 356° |
| 2026-05-01 12:00 | 48.34318 | -0.31922 | 36918 ft | 463 kts | 355° |
| 2026-05-01 12:00 | 48.37530 | -0.32292 | 37116 ft | 463 kts | 355° |
| 2026-05-01 12:00 | 48.43944 | -0.33182 | 37567 ft | 462 kts | 353° |
| 2026-05-01 12:01 | 48.47128 | -0.33697 | 37831 ft | 461 kts | 353° |
| 2026-05-01 12:01 | 48.50310 | -0.34259 | 38098 ft | 459 kts | 352° |
| 2026-05-01 12:01 | 48.53481 | -0.34868 | 38383 ft | 458 kts | 352° |
| 2026-05-01 12:01 | 48.56637 | -0.35523 | 38665 ft | 456 kts | 351° |
| 2026-05-01 12:02 | 48.59757 | -0.36222 | 38945 ft | 454 kts | 351° |
| 2026-05-01 12:02 | 48.62871 | -0.36973 | 39196 ft | 452 kts | 350° |
| 2026-05-01 12:02 | 48.65958 | -0.37776 | 39463 ft | 449 kts | 349° |
| 2026-05-01 12:02 | 48.69026 | -0.38629 | 39743 ft | 446 kts | 348° |
| 2026-05-01 12:03 | 48.72059 | -0.39527 | 40039 ft | 442 kts | 348° |
| 2026-05-01 12:03 | 48.75055 | -0.40467 | 40363 ft | 437 kts | 347° |
| 2026-05-01 12:03 | 48.78084 | -0.41282 | 40041 ft | 450 kts | 353° |
| 2026-05-01 12:03 | 48.81237 | -0.41515 | 39788 ft | 457 kts | 359° |
| 2026-05-01 12:04 | 48.84432 | -0.41559 | 39559 ft | 462 kts | 359° |
| 2026-05-01 12:04 | 48.87643 | -0.41551 | 39336 ft | 464 kts | 0° |
| 2026-05-01 12:04 | 48.90931 | -0.41516 | 39108 ft | 465 kts | 0° |
| 2026-05-01 12:04 | 48.94158 | -0.41473 | 38878 ft | 465 kts | 0° |
| 2026-05-01 12:05 | 48.97406 | -0.41434 | 38603 ft | 465 kts | 0° |
| 2026-05-01 12:05 | 49.03890 | -0.41387 | 38041 ft | 466 kts | 0° |
| 2026-05-01 12:05 | 49.07126 | -0.41378 | 37770 ft | 466 kts | 0° |
| 2026-05-01 12:06 | 49.09318 | -0.41376 | 37584 ft | 466 kts | 0° |
| 2026-05-01 12:06 | 49.12571 | -0.41374 | 37312 ft | 466 kts | 0° |
| 2026-05-01 12:06 | 49.15814 | -0.41368 | 37050 ft | 466 kts | 0° |
| 2026-05-01 12:06 | 49.19051 | -0.41358 | 36786 ft | 466 kts | 0° |
| 2026-05-01 12:07 | 49.22297 | -0.41347 | 36526 ft | 466 kts | 0° |
| 2026-05-01 12:07 | 49.25545 | -0.41336 | 36281 ft | 466 kts | 0° |
| 2026-05-01 12:07 | 49.32042 | -0.41316 | 36220 ft | 467 kts | 0° |
| 2026-05-01 12:08 | 49.38545 | -0.41295 | 36218 ft | 468 kts | 0° |
| 2026-05-01 12:08 | 49.45061 | -0.41264 | 36219 ft | 468 kts | 0° |
| 2026-05-01 12:09 | 49.51588 | -0.41242 | 36224 ft | 469 kts | 0° |
| 2026-05-01 12:09 | 49.58122 | -0.41217 | 36226 ft | 470 kts | 0° |
| 2026-05-01 12:10 | 49.67934 | -0.41205 | 36225 ft | 470 kts | 0° |
| 2026-05-01 12:11 | 49.77761 | -0.41193 | 36225 ft | 471 kts | 0° |
| 2026-05-01 12:11 | 49.84316 | -0.41178 | 36226 ft | 472 kts | 0° |
| 2026-05-01 12:12 | 49.90886 | -0.41163 | 36224 ft | 472 kts | 0° |
| 2026-05-01 12:12 | 49.97459 | -0.41159 | 36221 ft | 472 kts | 0° |
| 2026-05-01 12:13 | 50.04035 | -0.41145 | 36218 ft | 473 kts | 0° |
| 2026-05-01 12:13 | 50.10621 | -0.41114 | 36220 ft | 474 kts | 0° |
| 2026-05-01 12:14 | 50.17221 | -0.41105 | 36219 ft | 474 kts | 0° |
| 2026-05-01 12:14 | 50.23821 | -0.41099 | 36221 ft | 475 kts | 0° |
| 2026-05-01 12:15 | 50.30428 | -0.41094 | 36221 ft | 475 kts | 0° |
| 2026-05-01 12:15 | 50.37045 | -0.41076 | 36220 ft | 476 kts | 0° |
| 2026-05-01 12:16 | 50.43666 | -0.41069 | 36220 ft | 476 kts | 0° |
| 2026-05-01 12:16 | 50.50294 | -0.41060 | 36220 ft | 476 kts | 0° |
| 2026-05-01 12:17 | 50.56913 | -0.41043 | 36221 ft | 477 kts | 0° |
| 2026-05-01 12:17 | 50.63473 | -0.41030 | 36221 ft | 477 kts | 0° |
| 2026-05-01 12:18 | 50.69979 | -0.41021 | 36222 ft | 478 kts | 0° |
| 2026-05-01 12:18 | 50.76631 | -0.41014 | 36223 ft | 477 kts | 0° |
| 2026-05-01 12:19 | 50.83011 | -0.40998 | 36218 ft | 467 kts | 0° |
| 2026-05-01 12:19 | 50.89459 | -0.41017 | 36219 ft | 466 kts | 359° |
| 2026-05-01 12:20 | 50.95952 | -0.41095 | 36215 ft | 466 kts | 359° |
| 2026-05-01 12:20 | 51.02442 | -0.41181 | 36193 ft | 467 kts | 359° |
| 2026-05-01 12:21 | 51.08804 | -0.41250 | 36195 ft | 467 kts | 359° |
| 2026-05-01 12:21 | 51.15303 | -0.41314 | 36197 ft | 467 kts | 359° |
| 2026-05-01 12:22 | 51.18573 | -0.41342 | 36003 ft | 472 kts | 359° |
| 2026-05-01 12:22 | 51.21861 | -0.41370 | 35751 ft | 473 kts | 359° |
| 2026-05-01 12:22 | 51.25159 | -0.41400 | 35500 ft | 474 kts | 359° |
| 2026-05-01 12:22 | 51.28468 | -0.41432 | 35251 ft | 475 kts | 359° |
| 2026-05-01 12:23 | 51.31777 | -0.41468 | 34983 ft | 476 kts | 359° |
| 2026-05-01 12:23 | 51.35102 | -0.41504 | 34171 ft | 481 kts | 359° |
| 2026-05-01 12:23 | 51.38463 | -0.41447 | 33148 ft | 485 kts | 6° |
| 2026-05-01 12:23 | 51.41788 | -0.40621 | 32403 ft | 483 kts | 11° |
| 2026-05-01 12:24 | 51.45091 | -0.39642 | 31551 ft | 484 kts | 11° |
| 2026-05-01 12:24 | 51.48414 | -0.38646 | 30653 ft | 487 kts | 11° |
| 2026-05-01 12:24 | 51.51757 | -0.37642 | 29632 ft | 490 kts | 11° |
| 2026-05-01 12:24 | 51.55122 | -0.36632 | 28533 ft | 493 kts | 11° |
| 2026-05-01 12:25 | 51.58492 | -0.35621 | 27714 ft | 491 kts | 11° |
| 2026-05-01 12:25 | 51.65148 | -0.33662 | 26402 ft | 483 kts | 8° |
| 2026-05-01 12:25 | 51.68495 | -0.33617 | 25930 ft | 481 kts | 351° |
| 2026-05-01 12:26 | 51.71692 | -0.35028 | 25445 ft | 475 kts | 334° |
| 2026-05-01 12:26 | 51.77124 | -0.40753 | 24502 ft | 467 kts | 321° |
| 2026-05-01 12:26 | 51.79775 | -0.43874 | 24028 ft | 465 kts | 321° |
| 2026-05-01 12:27 | 51.82379 | -0.46943 | 23642 ft | 463 kts | 321° |
| 2026-05-01 12:27 | 51.87549 | -0.53046 | 22928 ft | 457 kts | 321° |
| 2026-05-01 12:28 | 51.92644 | -0.59075 | 22662 ft | 456 kts | 321° |
| 2026-05-01 12:28 | 51.95202 | -0.62109 | 22501 ft | 455 kts | 321° |
| 2026-05-01 12:28 | 51.99358 | -0.69453 | 21601 ft | 435 kts | 297° |
| 2026-05-01 12:29 | 52.00904 | -0.73654 | 20950 ft | 432 kts | 297° |
| 2026-05-01 12:29 | 52.02429 | -0.77828 | 20341 ft | 428 kts | 297° |
| 2026-05-01 12:29 | 52.05443 | -0.86123 | 19057 ft | 426 kts | 297° |
| 2026-05-01 12:30 | 52.08442 | -0.94358 | 17872 ft | 421 kts | 297° |
| 2026-05-01 12:30 | 52.09931 | -0.98436 | 17312 ft | 417 kts | 297° |
| 2026-05-01 12:30 | 52.11417 | -1.02483 | 16617 ft | 417 kts | 297° |
| 2026-05-01 12:31 | 52.12934 | -1.06507 | 16006 ft | 416 kts | 298° |
| 2026-05-01 12:31 | 52.14460 | -1.10482 | 15448 ft | 412 kts | 298° |
| 2026-05-01 12:31 | 52.15984 | -1.14430 | 14727 ft | 413 kts | 298° |
| 2026-05-01 12:31 | 52.17505 | -1.18385 | 14109 ft | 411 kts | 298° |
| 2026-05-01 12:32 | 52.19011 | -1.22323 | 13437 ft | 408 kts | 298° |
| 2026-05-01 12:32 | 52.21772 | -1.29601 | 12254 ft | 400 kts | 298° |
| 2026-05-01 12:32 | 52.23257 | -1.33536 | 11611 ft | 395 kts | 298° |
| 2026-05-01 12:33 | 52.24685 | -1.37335 | 11031 ft | 390 kts | 298° |
| 2026-05-01 12:33 | 52.26075 | -1.41027 | 10888 ft | 373 kts | 298° |
| 2026-05-01 12:33 | 52.27407 | -1.44546 | 10761 ft | 357 kts | 298° |
| 2026-05-01 12:33 | 52.28692 | -1.47921 | 10635 ft | 343 kts | 298° |
| 2026-05-01 12:34 | 52.29931 | -1.51166 | 10514 ft | 331 kts | 298° |
| 2026-05-01 12:34 | 52.31126 | -1.54306 | 10389 ft | 320 kts | 298° |
| 2026-05-01 12:34 | 52.32279 | -1.57345 | 10254 ft | 310 kts | 298° |
| 2026-05-01 12:34 | 52.33406 | -1.60329 | 9994 ft | 307 kts | 298° |
| 2026-05-01 12:35 | 52.34507 | -1.63309 | 9710 ft | 303 kts | 294° |
| 2026-05-01 12:35 | 52.35258 | -1.66453 | 9577 ft | 294 kts | 279° |
| 2026-05-01 12:35 | 52.35527 | -1.69723 | 9446 ft | 288 kts | 265° |
| 2026-05-01 12:35 | 52.35426 | -1.72966 | 9318 ft | 286 kts | 262° |
| 2026-05-01 12:36 | 52.35301 | -1.76201 | 9178 ft | 282 kts | 262° |
| 2026-05-01 12:36 | 52.35186 | -1.79336 | 9158 ft | 269 kts | 262° |
| 2026-05-01 12:36 | 52.35081 | -1.82313 | 9161 ft | 256 kts | 261° |
| 2026-05-01 12:36 | 52.34979 | -1.85144 | 9159 ft | 242 kts | 261° |
| 2026-05-01 12:37 | 52.34876 | -1.87843 | 9163 ft | 236 kts | 261° |
| 2026-05-01 12:37 | 52.34770 | -1.90514 | 9162 ft | 235 kts | 261° |
| 2026-05-01 12:37 | 52.34664 | -1.93184 | 9159 ft | 235 kts | 261° |
| 2026-05-01 12:37 | 52.34557 | -1.95851 | 9160 ft | 235 kts | 260° |
| 2026-05-01 12:38 | 52.34451 | -1.98520 | 9159 ft | 235 kts | 260° |
| 2026-05-01 12:38 | 52.34345 | -2.01193 | 9161 ft | 236 kts | 261° |
| 2026-05-01 12:38 | 52.34238 | -2.03866 | 9157 ft | 236 kts | 261° |
| 2026-05-01 12:38 | 52.34160 | -2.06542 | 9158 ft | 238 kts | 268° |
| 2026-05-01 12:39 | 52.34620 | -2.09140 | 9159 ft | 249 kts | 297° |
| 2026-05-01 12:39 | 52.35845 | -2.11226 | 9080 ft | 256 kts | 328° |
| 2026-05-01 12:39 | 52.37533 | -2.12093 | 8949 ft | 258 kts | 359° |
| 2026-05-01 12:39 | 52.39244 | -2.11570 | 8820 ft | 253 kts | 30° |
| 2026-05-01 12:40 | 52.40598 | -2.09835 | 8658 ft | 244 kts | 59° |
| 2026-05-01 12:40 | 52.41295 | -2.07399 | 8455 ft | 233 kts | 86° |
| 2026-05-01 12:40 | 52.41275 | -2.04829 | 8255 ft | 223 kts | 109° |
| 2026-05-01 12:40 | 52.40895 | -2.02371 | 8055 ft | 223 kts | 110° |
| 2026-05-01 12:41 | 52.40523 | -1.99909 | 7854 ft | 224 kts | 103° |
| 2026-05-01 12:41 | 52.40709 | -1.97348 | 7654 ft | 235 kts | 70° |
| 2026-05-01 12:41 | 52.41744 | -1.95244 | 7406 ft | 244 kts | 36° |
| 2026-05-01 12:41 | 52.43340 | -1.94271 | 7065 ft | 250 kts | 3° |
| 2026-05-01 12:42 | 52.45031 | -1.94753 | 6711 ft | 250 kts | 333° |
| 2026-05-01 12:42 | 52.46568 | -1.96093 | 6324 ft | 252 kts | 326° |
| 2026-05-01 12:42 | 52.48078 | -1.97583 | 5976 ft | 253 kts | 326° |
| 2026-05-01 12:42 | 52.49551 | -1.99066 | 5856 ft | 244 kts | 326° |
| 2026-05-01 12:43 | 52.50981 | -2.00512 | 5624 ft | 240 kts | 326° |
| 2026-05-01 12:43 | 52.52397 | -2.01948 | 5347 ft | 238 kts | 326° |
| 2026-05-01 12:43 | 52.53801 | -2.03377 | 5091 ft | 237 kts | 326° |
| 2026-05-01 12:43 | 52.55188 | -2.04791 | 4910 ft | 231 kts | 326° |
| 2026-05-01 12:44 | 52.56534 | -2.06160 | 4782 ft | 224 kts | 325° |
| 2026-05-01 12:44 | 52.57837 | -2.07484 | 4639 ft | 217 kts | 325° |
| 2026-05-01 12:44 | 52.60385 | -2.10054 | 4252 ft | 213 kts | 326° |
| 2026-05-01 12:45 | 52.63045 | -2.11968 | 3994 ft | 213 kts | 3° |
| 2026-05-01 12:45 | 52.64421 | -2.11173 | 3896 ft | 212 kts | 41° |
| 2026-05-01 12:45 | 52.65386 | -2.09374 | 3811 ft | 210 kts | 57° |
| 2026-05-01 12:46 | 52.66190 | -2.07370 | 3748 ft | 209 kts | 63° |
| 2026-05-01 12:46 | 52.66528 | -2.05141 | 3663 ft | 199 kts | 100° |
| 2026-05-01 12:46 | 52.66125 | -2.02998 | 3573 ft | 197 kts | 117° |
| 2026-05-01 12:46 | 52.65533 | -2.00966 | 3487 ft | 196 kts | 120° |
| 2026-05-01 12:47 | 52.64910 | -1.98962 | 3487 ft | 197 kts | 121° |
| 2026-05-01 12:47 | 52.64276 | -1.96947 | 3487 ft | 198 kts | 120° |
| 2026-05-01 12:47 | 52.63502 | -1.95111 | 3484 ft | 194 kts | 142° |
| 2026-05-01 12:47 | 52.62412 | -1.93829 | 3504 ft | 193 kts | 148° |
| 2026-05-01 12:48 | 52.61295 | -1.92584 | 3513 ft | 192 kts | 148° |
| 2026-05-01 12:48 | 52.60223 | -1.91381 | 3502 ft | 181 kts | 148° |
| 2026-05-01 12:48 | 52.59189 | -1.90223 | 3321 ft | 180 kts | 149° |
| 2026-05-01 12:48 | 52.58180 | -1.89092 | 3115 ft | 176 kts | 148° |
| 2026-05-01 12:49 | 52.57173 | -1.87964 | 2885 ft | 174 kts | 148° |
| 2026-05-01 12:49 | 52.56187 | -1.86860 | 2670 ft | 170 kts | 148° |
| 2026-05-01 12:49 | 52.55214 | -1.85770 | 2445 ft | 169 kts | 146° |
| 2026-05-01 12:49 | 52.54249 | -1.84691 | 2226 ft | 168 kts | 148° |
| 2026-05-01 12:50 | 52.53280 | -1.83609 | 2006 ft | 169 kts | 148° |
| 2026-05-01 12:50 | 52.52314 | -1.82529 | 1774 ft | 167 kts | 148° |
| 2026-05-01 12:50 | 52.51355 | -1.81459 | 1561 ft | 166 kts | 148° |
| 2026-05-01 12:50 | 52.50417 | -1.80412 | 1326 ft | 158 kts | 147° |
| 2026-05-01 12:51 | 52.49533 | -1.79426 | 1122 ft | 150 kts | 147° |
| 2026-05-01 12:51 | 52.48974 | -1.78803 | 979 ft | 143 kts | 146° |
| 2026-05-01 12:51 | 52.47347 | -1.76992 | 613 ft | 140 kts | 145° |
| 2026-05-01 12:52 | 52.46545 | -1.76097 | 385 ft | 138 kts | 146° |
| 2026-05-01 12:52 | 52.45368 | -1.74784 | 325 ft | 55 kts | 146° |
| 2026-05-01 12:52 | 52.45099 | -1.74484 | 328 ft | 39 kts | 145° |
| 2026-05-01 12:53 | 52.44950 | -1.74223 | 328 ft | 10 kts | 76° |
| 2026-05-01 12:53 | 52.44968 | -1.74106 | 327 ft | 12 kts | 76° |
| 2026-05-01 12:53 | 52.44982 | -1.74012 | 323 ft | 7 kts | 76° |
| 2026-05-01 12:54 | 52.44999 | -1.73912 | 324 ft | 9 kts | 70° |
| 2026-05-01 12:54 | 52.45020 | -1.73860 | 323 ft | 5 kts | 53° |
| 2026-05-01 12:54 | 52.45054 | -1.73786 | 323 ft | 10 kts | 51° |
| 2026-05-01 12:55 | 52.45195 | -1.73880 | 323 ft | 14 kts | 326° |
| 2026-05-01 12:55 | 52.45261 | -1.73954 | 323 ft | 8 kts | 325° |
| 2026-05-01 12:55 | 52.45319 | -1.73960 | 323 ft | 10 kts | 41° |
| 2026-05-01 12:56 | 52.45352 | -1.73883 | 323 ft | 5 kts | 62° |
| 2026-05-01 12:56 | 52.45329 | -1.73839 | 323 ft | 7 kts | 143° |
| 2026-05-01 12:56 | 52.45296 | -1.73802 | 322 ft | 3 kts | 145° |
| 2026-05-01 12:56 | 52.45295 | -1.73800 | 322 ft | 0 kts | 146° |